createdAt,value
2022-12-26T00:01:02.869Z,9.37
2022-12-26T00:06:14.219Z,9.40
2022-12-26T00:11:20.148Z,9.42
2022-12-26T00:16:26.497Z,9.49
2022-12-26T00:21:32.468Z,9.56
2022-12-26T00:26:38.139Z,9.61
2022-12-26T00:31:43.682Z,9.68
2022-12-26T00:36:49.300Z,9.69
2022-12-26T00:41:54.820Z,9.74
2022-12-26T00:47:00.417Z,9.82
2022-12-26T00:52:06.388Z,9.84
2022-12-26T00:57:12.037Z,9.87
2022-12-26T01:02:35.259Z,9.94
2022-12-26T01:08:23.074Z,10.00
2022-12-26T01:12:49.164Z,10.03
2022-12-26T01:17:54.755Z,10.07
2022-12-26T01:23:00.280Z,10.12
2022-12-26T01:28:06.120Z,10.17
2022-12-26T01:33:11.545Z,10.21
2022-12-26T01:38:17.477Z,10.30
2022-12-26T01:43:22.993Z,10.30
2022-12-26T01:48:33.130Z,10.35
2022-12-26T01:53:44.117Z,10.43
2022-12-26T01:58:55.300Z,10.48
2022-12-26T02:04:21.886Z,10.51
2022-12-26T02:09:27.421Z,10.59
2022-12-26T02:14:34.440Z,10.60
2022-12-26T02:19:54.611Z,10.65
2022-12-26T02:25:24.198Z,10.72
2022-12-26T02:30:38.365Z,10.74
2022-12-26T02:35:59.010Z,10.75
2022-12-26T02:41:18.019Z,10.71
2022-12-26T02:46:44.034Z,10.69
2022-12-26T02:52:13.230Z,10.77
2022-12-26T02:57:39.270Z,10.80
2022-12-26T03:03:17.964Z,10.81
2022-12-26T03:08:50.411Z,10.76
2022-12-26T03:13:58.855Z,10.80
2022-12-26T03:19:07.357Z,10.79
2022-12-26T03:24:15.625Z,10.82
2022-12-26T03:29:41.553Z,10.83
2022-12-26T03:34:46.952Z,10.90
2022-12-26T03:40:29.637Z,10.91
2022-12-26T03:46:12.639Z,10.93
2022-12-26T03:51:39.222Z,10.92
2022-12-26T03:57:05.575Z,10.89
2022-12-26T04:02:30.981Z,11.00
2022-12-26T04:07:58.439Z,11.02
2022-12-26T04:13:25.364Z,11.06
2022-12-26T04:19:04.337Z,11.10
2022-12-26T04:24:34.327Z,11.09
2022-12-26T04:29:58.112Z,11.07
2022-12-26T04:35:30.501Z,11.13
2022-12-26T04:40:57.150Z,11.20
2022-12-26T04:46:03.453Z,11.18
2022-12-26T04:51:09.013Z,11.24
2022-12-26T04:56:14.966Z,11.16
2022-12-26T05:01:38.347Z,11.29
2022-12-26T05:07:01.830Z,11.22
2022-12-26T05:12:09.966Z,11.27
2022-12-26T05:17:34.093Z,11.34
2022-12-26T05:23:01.097Z,11.31
2022-12-26T05:28:25.540Z,11.33
2022-12-26T05:33:49.374Z,12.39
2022-12-26T05:38:56.298Z,11.63
2022-12-26T05:44:01.819Z,11.44
2022-12-26T05:49:08.219Z,11.32
2022-12-26T05:54:13.713Z,11.31
2022-12-26T05:59:19.171Z,11.30
2022-12-26T06:04:24.709Z,11.36
2022-12-26T06:09:30.237Z,11.30
2022-12-26T06:14:35.612Z,11.34
2022-12-26T06:19:46.559Z,11.32
2022-12-26T06:24:48.324Z,11.36
2022-12-26T06:29:53.713Z,11.27
2022-12-26T06:34:59.509Z,11.33
2022-12-26T06:40:05.483Z,11.33
2022-12-26T06:45:11.970Z,11.33
2022-12-26T06:50:17.592Z,11.35
2022-12-26T06:55:23.268Z,11.36
2022-12-26T07:00:30.415Z,11.39
2022-12-26T07:05:38.083Z,11.32
2022-12-26T07:10:43.509Z,11.24
2022-12-26T07:15:48.966Z,11.31
2022-12-26T07:20:54.505Z,11.27
2022-12-26T07:26:00.522Z,11.22
2022-12-26T07:31:06.554Z,11.27
2022-12-26T07:36:12.216Z,11.21
2022-12-26T07:41:35.570Z,11.18
2022-12-26T07:46:41.075Z,11.17
2022-12-26T07:51:46.522Z,11.19
2022-12-26T07:56:51.986Z,11.15
2022-12-26T08:01:59.396Z,11.17
2022-12-26T08:07:05.275Z,11.12
2022-12-26T08:12:11.039Z,11.14
2022-12-26T08:17:16.909Z,11.12
2022-12-26T08:22:22.331Z,11.07
2022-12-26T08:27:27.709Z,11.06
2022-12-26T08:32:33.158Z,11.06
2022-12-26T08:37:38.549Z,11.01
2022-12-26T08:42:56.109Z,11.06
2022-12-26T08:47:52.115Z,11.04
2022-12-26T08:52:57.501Z,11.10
2022-12-26T08:58:02.914Z,11.08
2022-12-26T09:03:08.816Z,11.04
2022-12-26T09:08:14.631Z,11.07
2022-12-26T09:13:20.382Z,11.04
2022-12-26T09:18:25.837Z,11.03
2022-12-26T09:23:31.868Z,11.07
2022-12-26T09:28:38.127Z,11.16
2022-12-26T09:33:43.594Z,11.17
2022-12-26T09:38:50.481Z,11.16
2022-12-26T09:44:15.480Z,12.00
2022-12-26T09:49:26.492Z,11.45
2022-12-26T09:54:37.740Z,11.39
2022-12-26T09:59:49.250Z,11.27
2022-12-26T10:04:55.880Z,11.30
2022-12-26T10:10:16.539Z,11.28
2022-12-26T10:15:33.877Z,11.36
2022-12-26T10:20:57.114Z,11.37
2022-12-26T10:26:23.322Z,11.38
2022-12-26T10:31:38.360Z,11.33
2022-12-26T10:36:52.905Z,11.35
2022-12-26T10:42:01.638Z,11.39
2022-12-26T10:47:16.028Z,11.46
2022-12-26T10:52:24.472Z,11.36
2022-12-26T10:57:33.218Z,11.44
2022-12-26T11:02:38.781Z,11.35
2022-12-26T11:07:59.375Z,11.34
2022-12-26T11:13:08.271Z,11.33
2022-12-26T11:18:26.017Z,11.31
2022-12-26T11:23:34.980Z,11.29
2022-12-26T11:28:40.519Z,11.30
2022-12-26T11:33:48.664Z,11.40
2022-12-26T11:39:05.923Z,11.34
2022-12-26T11:44:14.430Z,11.33
2022-12-26T11:49:22.866Z,11.30
2022-12-26T11:54:31.665Z,11.34
2022-12-26T11:59:37.274Z,11.27
2022-12-26T12:04:43.646Z,11.28
2022-12-26T12:10:13.657Z,11.28
2022-12-26T12:15:22.275Z,11.29
2022-12-26T12:20:44.389Z,11.27
2022-12-26T12:26:01.426Z,11.31
2022-12-26T12:31:33.006Z,11.29
2022-12-26T12:37:15.411Z,11.34
2022-12-26T12:42:26.654Z,11.31
2022-12-26T12:47:41.087Z,11.27
2022-12-26T12:52:55.740Z,11.32
2022-12-26T12:58:16.169Z,11.26
2022-12-26T13:03:36.860Z,11.23
2022-12-26T13:08:45.461Z,11.24
2022-12-26T13:14:09.989Z,11.22
2022-12-26T13:19:21.437Z,11.27
2022-12-26T13:24:45.853Z,11.30
2022-12-26T13:29:52.868Z,11.27
2022-12-26T13:35:01.009Z,11.27
2022-12-26T13:40:18.270Z,11.24
2022-12-26T13:45:46.515Z,11.23
2022-12-26T13:51:04.037Z,11.15
2022-12-26T13:56:21.509Z,11.22
2022-12-26T14:02:02.987Z,11.30
2022-12-26T14:07:09.058Z,11.26
2022-12-26T14:12:36.762Z,11.30
2022-12-26T14:18:03.388Z,11.29
2022-12-26T14:23:12.055Z,11.34
2022-12-26T14:28:26.315Z,11.27
2022-12-26T14:33:55.279Z,11.26
2022-12-26T14:39:06.511Z,11.30
2022-12-26T14:44:20.754Z,11.27
2022-12-26T14:49:35.977Z,11.29
2022-12-26T14:54:50.260Z,11.24
2022-12-26T15:00:17.096Z,11.12
2022-12-26T15:05:25.863Z,11.04
2022-12-26T15:10:37.048Z,11.04
2022-12-26T15:15:57.505Z,11.05
2022-12-26T15:21:33.353Z,10.94
2022-12-26T15:26:50.824Z,10.99
2022-12-26T15:32:03.712Z,11.00
2022-12-26T15:37:12.247Z,11.00
2022-12-26T15:42:20.773Z,11.02
2022-12-26T15:47:47.259Z,11.04
2022-12-26T15:52:58.393Z,11.11
2022-12-26T15:58:09.837Z,11.06
2022-12-26T16:03:27.357Z,11.06
2022-12-26T16:08:40.277Z,11.03
2022-12-26T16:13:58.515Z,11.06
2022-12-26T16:19:29.461Z,11.05
2022-12-26T16:24:38.167Z,11.17
2022-12-26T16:29:53.070Z,11.21
2022-12-26T16:35:00.389Z,11.21
2022-12-26T16:40:18.327Z,11.16
2022-12-26T16:45:25.225Z,11.22
2022-12-26T16:50:33.239Z,11.19
2022-12-26T16:55:44.562Z,11.35
2022-12-26T17:01:12.625Z,11.33
2022-12-26T17:06:32.987Z,11.24
2022-12-26T17:11:47.660Z,11.34
2022-12-26T17:17:05.312Z,11.27
2022-12-26T17:22:37.798Z,11.20
2022-12-26T17:27:43.706Z,11.06
2022-12-26T17:32:49.536Z,10.87
2022-12-26T17:38:00.763Z,10.79
2022-12-26T17:43:15.195Z,10.90
2022-12-26T17:48:20.782Z,10.90
2022-12-26T17:53:34.083Z,10.93
2022-12-26T17:58:39.788Z,10.99
2022-12-26T18:03:45.227Z,10.96
2022-12-26T18:08:50.987Z,11.15
2022-12-26T18:13:56.378Z,11.35
2022-12-26T18:19:02.917Z,11.02
2022-12-26T18:24:09.004Z,11.06
2022-12-26T18:29:14.444Z,10.97
2022-12-26T18:34:19.840Z,10.90
2022-12-26T18:39:25.458Z,10.79
2022-12-26T18:44:30.953Z,10.71
2022-12-26T18:49:36.447Z,10.51
2022-12-26T18:54:42.282Z,10.28
2022-12-26T18:59:48.586Z,10.14
2022-12-26T19:04:54.468Z,9.95
2022-12-26T19:10:01.179Z,9.70
2022-12-26T19:15:07.308Z,9.57
2022-12-26T19:20:18.766Z,9.67
2022-12-26T19:25:26.144Z,9.37
2022-12-26T19:30:38.326Z,9.43
2022-12-26T19:35:38.756Z,9.25
2022-12-26T19:40:44.181Z,9.06
2022-12-26T19:45:49.672Z,8.92
2022-12-26T19:50:55.331Z,8.87
2022-12-26T19:56:01.039Z,8.83
2022-12-26T20:01:09.264Z,8.72
2022-12-26T20:06:20.649Z,8.73
2022-12-26T20:11:31.751Z,8.60
2022-12-26T20:17:04.413Z,8.50
2022-12-26T20:21:44.445Z,8.50
2022-12-26T20:26:51.082Z,8.24
2022-12-26T20:31:56.719Z,8.12
2022-12-26T20:37:02.158Z,8.05
2022-12-26T20:42:07.826Z,7.93
2022-12-26T20:47:13.578Z,7.79
2022-12-26T20:52:19.197Z,7.65
2022-12-26T20:57:24.735Z,7.54
2022-12-26T21:02:30.546Z,7.37
2022-12-26T21:07:36.330Z,7.29
2022-12-26T21:12:41.906Z,7.18
2022-12-26T21:17:48.009Z,7.15
2022-12-26T21:22:55.933Z,7.07
2022-12-26T21:28:01.463Z,7.05
2022-12-26T21:33:06.944Z,7.05
2022-12-26T21:38:12.483Z,7.00
2022-12-26T21:43:18.641Z,6.89
2022-12-26T21:48:24.791Z,6.87
2022-12-26T21:53:30.179Z,6.74
2022-12-26T21:58:37.658Z,6.66
2022-12-26T22:04:01.056Z,6.64
2022-12-26T22:09:07.799Z,6.62
2022-12-26T22:14:13.709Z,6.63
2022-12-26T22:19:19.244Z,6.51
2022-12-26T22:24:24.701Z,6.52
2022-12-26T22:29:31.044Z,6.50
2022-12-26T22:34:38.078Z,6.56
2022-12-26T22:39:45.880Z,6.60
2022-12-26T22:44:51.588Z,6.67
2022-12-26T22:49:57.202Z,6.64
2022-12-26T22:55:02.629Z,6.60
2022-12-26T23:00:11.862Z,6.56
2022-12-26T23:05:18.151Z,6.63
2022-12-26T23:10:25.278Z,6.65
2022-12-26T23:15:31.498Z,6.71
2022-12-26T23:20:57.223Z,6.60
2022-12-26T23:26:02.755Z,6.69
2022-12-26T23:31:08.867Z,6.68
2022-12-26T23:36:14.450Z,6.63
2022-12-26T23:41:19.845Z,6.68
2022-12-26T23:46:25.422Z,6.63
2022-12-26T23:51:30.911Z,6.66
2022-12-26T23:56:38.129Z,6.65
